createdAt,value
2023-03-08T00:00:15.231Z,94155.78
2023-03-08T00:02:41.959Z,94174.75
2023-03-08T00:05:09.229Z,94167.84
2023-03-08T00:07:37.328Z,94170.09
2023-03-08T00:10:05.640Z,94180.31
2023-03-08T00:12:32.323Z,94174.47
2023-03-08T00:14:59.089Z,94184.97
2023-03-08T00:17:26.317Z,94185.28
2023-03-08T00:19:52.996Z,94186.50
2023-03-08T00:22:19.772Z,94178.31
2023-03-08T00:24:46.883Z,94192.72
2023-03-08T00:27:13.444Z,94191.53
2023-03-08T00:29:40.055Z,94182.06
2023-03-08T00:32:06.952Z,94175.75
2023-03-08T00:34:33.572Z,94181.03
2023-03-08T00:37:00.120Z,94177.41
2023-03-08T00:39:26.691Z,94184.94
2023-03-08T00:41:53.406Z,94176.50
2023-03-08T00:44:20.096Z,94175.63
2023-03-08T00:46:46.798Z,94170.53
2023-03-08T00:49:13.486Z,94180.31
2023-03-08T00:51:40.073Z,94178.00
2023-03-08T00:54:06.769Z,94177.25
2023-03-08T00:56:33.355Z,94180.72
2023-03-08T00:59:00.251Z,94172.28
2023-03-08T01:01:27.136Z,94172.59
2023-03-08T01:03:53.753Z,94182.63
2023-03-08T01:06:20.425Z,94186.25
2023-03-08T01:08:47.111Z,94187.44
2023-03-08T01:11:22.717Z,94194.53
2023-03-08T01:13:50.632Z,94188.50
2023-03-08T01:16:20.509Z,94181.75
2023-03-08T01:18:47.320Z,94180.84
2023-03-08T01:21:13.967Z,94176.34
2023-03-08T01:23:42.714Z,94187.00
2023-03-08T01:26:14.844Z,94184.75
2023-03-08T01:28:41.903Z,94181.47
2023-03-08T01:31:18.115Z,94173.19
2023-03-08T01:33:45.633Z,94178.88
2023-03-08T01:36:17.963Z,94185.06
2023-03-08T01:38:45.246Z,94191.22
2023-03-08T01:41:27.142Z,94186.13
2023-03-08T01:43:54.477Z,94187.09
2023-03-08T01:46:28.553Z,94196.94
2023-03-08T01:48:59.665Z,94192.19
2023-03-08T01:51:48.034Z,94189.50
2023-03-08T01:54:17.771Z,94191.31
2023-03-08T01:56:46.557Z,94182.50
2023-03-08T01:59:14.542Z,94188.81
2023-03-08T02:01:41.952Z,94191.94
2023-03-08T02:04:10.276Z,94193.78
2023-03-08T02:06:36.907Z,94192.53
2023-03-08T02:09:05.288Z,94190.59
2023-03-08T02:11:38.742Z,94187.06
2023-03-08T02:14:06.251Z,94192.03
2023-03-08T02:16:33.081Z,94188.25
2023-03-08T02:19:06.712Z,94188.56
2023-03-08T02:21:33.420Z,94173.50
2023-03-08T02:24:07.526Z,94186.16
2023-03-08T02:26:37.193Z,94196.22
2023-03-08T02:29:03.826Z,94183.91
2023-03-08T02:31:30.538Z,94175.41
2023-03-08T02:33:57.188Z,94183.72
2023-03-08T02:36:23.833Z,94182.75
2023-03-08T02:38:50.530Z,94195.91
2023-03-08T02:41:17.295Z,94191.41
2023-03-08T02:43:43.851Z,94195.44
2023-03-08T02:46:14.553Z,94192.75
2023-03-08T02:48:41.179Z,94200.03
2023-03-08T02:51:07.861Z,94195.72
2023-03-08T02:53:34.483Z,94203.81
2023-03-08T02:56:01.141Z,94202.13
2023-03-08T02:58:27.792Z,94201.69
2023-03-08T03:00:54.398Z,94211.72
2023-03-08T03:03:20.962Z,94210.75
2023-03-08T03:05:47.549Z,94210.78
2023-03-08T03:08:14.267Z,94212.28
2023-03-08T03:10:41.743Z,94212.06
2023-03-08T03:13:08.760Z,94208.81
2023-03-08T03:15:38.306Z,94210.97
2023-03-08T03:18:06.057Z,94216.38
2023-03-08T03:20:33.761Z,94210.44
2023-03-08T03:23:00.350Z,94214.88
2023-03-08T03:25:27.243Z,94222.28
2023-03-08T03:27:55.375Z,94219.47
2023-03-08T03:30:22.080Z,94231.34
2023-03-08T03:32:48.679Z,94218.31
2023-03-08T03:35:15.308Z,94232.00
2023-03-08T03:37:41.961Z,94234.13
2023-03-08T03:40:09.443Z,94233.81
2023-03-08T03:42:36.136Z,94229.84
2023-03-08T03:45:02.882Z,94217.22
2023-03-08T03:47:29.492Z,94229.09
2023-03-08T03:49:56.095Z,94214.13
2023-03-08T03:52:22.746Z,94240.31
2023-03-08T03:54:49.350Z,94227.28
2023-03-08T03:57:16.003Z,94237.94
2023-03-08T03:59:42.580Z,94245.03
2023-03-08T04:02:09.292Z,94236.09
2023-03-08T04:04:35.925Z,94231.88
2023-03-08T04:07:02.796Z,94242.03
2023-03-08T04:09:29.411Z,94237.72
2023-03-08T04:11:56.485Z,94244.63
2023-03-08T04:14:23.165Z,94238.03
2023-03-08T04:16:49.736Z,94235.88
2023-03-08T04:19:16.359Z,94239.13
2023-03-08T04:21:43.075Z,94255.09
2023-03-08T04:24:09.839Z,94246.16
2023-03-08T04:26:37.834Z,94249.03
2023-03-08T04:29:06.213Z,94257.66
2023-03-08T04:31:35.169Z,94255.81
2023-03-08T04:34:02.838Z,94256.13
2023-03-08T04:36:29.538Z,94261.31
2023-03-08T04:38:56.402Z,94241.06
2023-03-08T04:41:23.491Z,94249.34
2023-03-08T04:43:53.128Z,94248.38
2023-03-08T04:46:22.090Z,94241.81
2023-03-08T04:48:49.286Z,94258.84
2023-03-08T04:51:16.758Z,94256.03
2023-03-08T04:53:45.393Z,94261.31
2023-03-08T04:56:14.188Z,94261.84
2023-03-08T04:58:41.460Z,94235.22
2023-03-08T05:07:53.936Z,94272.81
2023-03-08T05:10:20.553Z,94255.22
2023-03-08T05:12:47.241Z,94270.63
2023-03-08T05:15:24.783Z,94277.94
2023-03-08T05:17:51.671Z,94288.78
2023-03-08T05:30:32.495Z,94311.00
2023-03-08T05:32:59.421Z,94301.97
2023-03-08T05:35:26.207Z,94309.63
2023-03-08T05:37:52.782Z,94314.50
2023-03-08T05:40:19.535Z,94325.19
2023-03-08T05:42:46.187Z,94322.44
2023-03-08T05:45:12.850Z,94327.69
2023-03-08T05:47:39.512Z,94330.03
2023-03-08T05:50:06.480Z,94330.94
2023-03-08T05:52:34.678Z,94329.13
2023-03-08T05:55:01.600Z,94332.66
2023-03-08T05:57:28.626Z,94341.06
2023-03-08T05:59:55.250Z,94340.31
2023-03-08T06:02:22.090Z,94343.34
2023-03-08T06:04:48.856Z,94336.53
2023-03-08T06:07:15.521Z,94339.38
2023-03-08T06:09:44.966Z,94341.94
2023-03-08T06:12:11.778Z,94324.25
2023-03-08T06:14:38.378Z,94349.25
2023-03-08T06:17:05.014Z,94342.63
2023-03-08T06:19:31.708Z,94343.84
2023-03-08T06:21:58.402Z,94356.03
2023-03-08T06:24:25.088Z,94350.75
2023-03-08T06:26:51.792Z,94351.81
2023-03-08T06:29:18.374Z,94364.28
2023-03-08T06:31:45.028Z,94362.19
2023-03-08T06:34:12.914Z,94357.97
2023-03-08T06:36:39.778Z,94366.69
2023-03-08T06:39:07.195Z,94372.84
2023-03-08T06:41:33.930Z,94388.84
2023-03-08T06:44:00.568Z,94386.00
2023-03-08T06:46:27.613Z,94389.09
2023-03-08T06:48:57.533Z,94395.00
2023-03-08T06:51:24.118Z,94389.84
2023-03-08T06:53:50.704Z,94405.31
2023-03-08T06:56:18.030Z,94404.97
2023-03-08T06:58:45.109Z,94401.34
2023-03-08T07:01:13.876Z,94409.22
2023-03-08T07:03:40.694Z,94413.50
2023-03-08T07:06:09.655Z,94414.22
2023-03-08T07:08:37.679Z,94419.59
2023-03-08T07:11:04.487Z,94411.16
2023-03-08T07:13:31.079Z,94412.56
2023-03-08T07:15:58.125Z,94413.59
2023-03-08T07:18:25.057Z,94415.06
2023-03-08T07:20:58.691Z,94421.28
2023-03-08T07:23:25.891Z,94415.88
2023-03-08T07:25:52.527Z,94413.72
2023-03-08T07:28:19.210Z,94425.41
2023-03-08T07:30:50.492Z,94421.50
2023-03-08T07:33:18.213Z,94422.81
2023-03-08T07:35:45.154Z,94420.41
2023-03-08T07:38:12.275Z,94418.47
2023-03-08T07:40:39.238Z,94414.91
2023-03-08T07:43:06.367Z,94423.38
2023-03-08T07:45:33.189Z,94418.19
2023-03-08T07:47:59.810Z,94419.53
2023-03-08T07:50:27.309Z,94425.81
2023-03-08T07:52:54.005Z,94421.38
2023-03-08T07:55:21.482Z,94410.41
2023-03-08T07:57:48.124Z,94404.03
2023-03-08T08:00:15.000Z,94425.88
2023-03-08T08:02:42.283Z,94401.47
2023-03-08T08:05:09.393Z,94427.50
2023-03-08T08:07:36.162Z,94421.56
2023-03-08T08:10:02.854Z,94430.97
2023-03-08T08:12:29.442Z,94428.16
2023-03-08T08:14:56.272Z,94413.47
2023-03-08T08:17:22.947Z,94434.78
2023-03-08T08:19:49.678Z,94425.28
2023-03-08T08:22:16.324Z,94430.53
2023-03-08T08:24:43.171Z,94430.28
2023-03-08T08:27:09.805Z,94433.84
2023-03-08T08:29:37.641Z,94430.50
2023-03-08T08:32:04.884Z,94431.06
2023-03-08T08:34:31.678Z,94432.94
2023-03-08T08:36:58.333Z,94446.47
2023-03-08T08:39:25.021Z,94440.41
2023-03-08T08:41:51.708Z,94435.81
2023-03-08T08:44:18.351Z,94426.53
2023-03-08T08:46:44.963Z,94432.34
2023-03-08T08:49:11.569Z,94429.16
2023-03-08T08:51:38.314Z,94433.91
2023-03-08T08:54:05.104Z,94434.94
2023-03-08T08:56:31.824Z,94432.72
2023-03-08T08:59:01.585Z,94444.66
2023-03-08T09:01:31.792Z,94445.75
2023-03-08T09:03:59.563Z,94436.72
2023-03-08T09:06:27.526Z,94438.75
2023-03-08T09:08:56.814Z,94434.44
2023-03-08T09:11:24.489Z,94429.91
2023-03-08T09:13:51.357Z,94420.59
2023-03-08T09:16:21.005Z,94426.78
2023-03-08T09:18:48.141Z,94436.16
2023-03-08T09:21:15.842Z,94428.03
2023-03-08T09:23:42.869Z,94415.97
2023-03-08T09:26:09.818Z,94421.66
2023-03-08T09:28:36.978Z,94416.84
2023-03-08T09:31:12.162Z,94424.81
2023-03-08T09:33:51.945Z,94409.59
2023-03-08T09:36:19.586Z,94412.38
2023-03-08T09:38:50.464Z,94416.00
2023-03-08T09:41:23.223Z,94413.25
2023-03-08T09:44:02.059Z,94410.53
2023-03-08T09:46:40.838Z,94406.75
2023-03-08T09:49:27.433Z,94405.25
2023-03-08T09:52:14.048Z,94394.34
2023-03-08T09:54:41.070Z,94393.09
2023-03-08T09:57:17.008Z,94389.13
2023-03-08T09:59:52.752Z,94393.31
2023-03-08T10:02:53.396Z,94387.31
2023-03-08T10:05:41.069Z,94381.66
2023-03-08T10:08:23.880Z,94382.63
2023-03-08T10:11:03.475Z,94380.13
2023-03-08T10:13:39.980Z,94371.41
2023-03-08T10:16:24.795Z,94375.22
2023-03-08T10:19:06.977Z,94366.06
2023-03-08T10:21:36.757Z,94360.84
2023-03-08T10:24:12.216Z,94366.75
2023-03-08T10:26:40.469Z,94361.78
2023-03-08T10:29:07.114Z,94353.19
2023-03-08T10:31:33.863Z,94369.44
2023-03-08T10:34:12.842Z,94367.22
2023-03-08T10:36:57.457Z,94367.44
2023-03-08T10:39:24.089Z,94361.78
2023-03-08T10:41:54.473Z,94358.31
2023-03-08T10:44:37.036Z,94353.78
2023-03-08T10:47:36.547Z,94351.16
2023-03-08T10:50:14.079Z,94352.22
2023-03-08T10:52:42.198Z,94339.97
2023-03-08T10:55:13.218Z,94352.38
2023-03-08T10:57:42.951Z,94340.78
2023-03-08T11:00:34.607Z,94353.59
2023-03-08T11:03:10.502Z,94332.09
2023-03-08T11:05:37.382Z,94340.50
2023-03-08T11:08:04.852Z,94323.16
2023-03-08T11:10:32.400Z,94324.28
2023-03-08T11:13:05.826Z,94319.81
2023-03-08T11:15:37.439Z,94315.84
2023-03-08T11:18:42.798Z,94312.63
2023-03-08T11:21:32.501Z,94302.16
2023-03-08T11:23:59.147Z,94302.91
2023-03-08T11:26:48.704Z,94271.28
2023-03-08T11:29:46.570Z,94295.44
2023-03-08T11:32:20.865Z,94273.97
2023-03-08T11:35:12.414Z,94286.41
2023-03-08T11:37:49.254Z,94282.63
2023-03-08T11:40:21.863Z,94281.56
2023-03-08T11:43:13.292Z,94286.94
2023-03-08T11:45:56.060Z,94275.91
2023-03-08T11:48:40.967Z,94268.44
2023-03-08T11:51:21.134Z,94263.19
2023-03-08T11:54:15.989Z,94265.66
2023-03-08T11:56:45.348Z,94263.19
2023-03-08T11:59:21.116Z,94263.00
2023-03-08T12:01:59.159Z,94250.13
2023-03-08T12:04:34.506Z,94256.59
2023-03-08T12:07:06.152Z,94255.59
2023-03-08T12:10:01.998Z,94263.56
2023-03-08T12:12:35.067Z,94257.34
2023-03-08T12:15:13.855Z,94256.34
2023-03-08T12:17:50.571Z,94259.34
2023-03-08T12:20:20.239Z,94260.09
2023-03-08T12:22:54.768Z,94240.09
2023-03-08T12:25:33.184Z,94247.97
2023-03-08T12:28:06.396Z,94256.91
2023-03-08T12:31:01.858Z,94255.94
2023-03-08T12:33:32.377Z,94258.88
2023-03-08T12:36:05.675Z,94251.81
2023-03-08T12:38:45.751Z,94258.41
2023-03-08T12:41:27.649Z,94248.69
2023-03-08T12:44:22.178Z,94234.50
2023-03-08T12:47:02.851Z,94241.19
2023-03-08T12:49:37.383Z,94232.75
2023-03-08T12:52:19.389Z,94240.66
2023-03-08T12:55:01.517Z,94228.84
2023-03-08T12:57:43.036Z,94236.03
2023-03-08T13:00:33.457Z,94233.72
2023-03-08T13:03:27.332Z,94207.09
2023-03-08T13:05:54.130Z,94236.88
2023-03-08T13:08:40.027Z,94234.09
2023-03-08T13:11:16.135Z,94230.44
2023-03-08T13:13:49.732Z,94230.66
2023-03-08T13:16:32.654Z,94220.44
2023-03-08T13:19:14.747Z,94223.16
2023-03-08T13:22:06.931Z,94224.72
2023-03-08T13:24:57.251Z,94223.69
2023-03-08T13:27:26.858Z,94217.84
2023-03-08T13:29:55.008Z,94210.94
2023-03-08T13:32:25.076Z,94220.72
2023-03-08T13:35:00.269Z,94217.66
2023-03-08T13:37:29.107Z,94208.28
2023-03-08T13:39:58.185Z,94205.56
2023-03-08T13:42:27.098Z,94217.44
2023-03-08T13:45:05.893Z,94186.38
2023-03-08T13:47:35.167Z,94207.25
2023-03-08T13:50:03.006Z,94212.94
2023-03-08T13:52:32.857Z,94185.28
2023-03-08T13:55:02.398Z,94201.97
2023-03-08T13:57:31.947Z,94198.53
2023-03-08T14:00:02.284Z,94197.34
2023-03-08T14:02:31.347Z,94202.56
2023-03-08T14:04:58.904Z,94201.13
2023-03-08T14:07:32.316Z,94202.22
2023-03-08T14:09:59.651Z,94197.59
2023-03-08T14:12:32.961Z,94190.50
2023-03-08T14:15:02.598Z,94186.13
2023-03-08T14:17:33.542Z,94189.69
2023-03-08T14:20:17.142Z,94191.22
2023-03-08T14:22:47.597Z,94185.25
2023-03-08T14:25:24.550Z,94197.69
2023-03-08T14:27:51.866Z,94191.13
2023-03-08T14:30:24.817Z,94190.03
2023-03-08T14:33:07.018Z,94190.38
2023-03-08T14:35:36.188Z,94189.03
2023-03-08T14:38:04.017Z,94191.06
2023-03-08T14:40:35.715Z,94197.47
2023-03-08T14:43:06.407Z,94198.81
2023-03-08T14:45:32.982Z,94196.78
2023-03-08T14:48:19.966Z,94201.19
2023-03-08T14:51:22.154Z,94206.72
2023-03-08T14:54:02.676Z,94205.91
2023-03-08T14:56:30.784Z,94196.31
2023-03-08T14:59:01.213Z,94200.19
2023-03-08T15:01:35.709Z,94206.41
2023-03-08T15:04:03.303Z,94200.34
2023-03-08T15:06:36.283Z,94198.88
2023-03-08T15:09:06.288Z,94203.63
2023-03-08T15:11:33.045Z,94200.94
2023-03-08T15:14:00.296Z,94191.75
2023-03-08T15:16:27.453Z,94186.25
2023-03-08T15:18:54.170Z,94197.94
2023-03-08T15:21:27.161Z,94194.69
2023-03-08T15:23:54.412Z,94210.91
2023-03-08T15:26:31.868Z,94206.72
2023-03-08T15:29:03.277Z,94217.97
2023-03-08T15:31:31.629Z,94221.47
2023-03-08T15:33:58.622Z,94227.47
2023-03-08T15:36:25.483Z,94219.00
2023-03-08T15:38:52.365Z,94207.78
2023-03-08T15:41:19.022Z,94214.75
2023-03-08T15:43:45.831Z,94218.00
2023-03-08T15:46:13.948Z,94215.25
2023-03-08T15:48:40.811Z,94212.78
2023-03-08T15:51:17.245Z,94212.53
2023-03-08T15:53:43.924Z,94194.34
2023-03-08T15:56:10.552Z,94212.25
2023-03-08T15:58:37.141Z,94201.03
2023-03-08T16:01:05.541Z,94215.47
2023-03-08T16:03:34.911Z,94210.50
2023-03-08T16:06:02.611Z,94215.72
2023-03-08T16:08:29.719Z,94208.75
2023-03-08T16:11:00.291Z,94192.06
2023-03-08T16:13:26.975Z,94191.56
2023-03-08T16:15:57.287Z,94201.50
2023-03-08T16:18:23.872Z,94210.19
2023-03-08T16:20:50.689Z,94206.91
2023-03-08T16:23:17.342Z,94202.94
2023-03-08T16:25:44.070Z,94201.69
2023-03-08T16:28:10.833Z,94210.63
2023-03-08T16:30:39.358Z,94203.63
2023-03-08T16:33:06.155Z,94203.09
2023-03-08T16:35:32.777Z,94211.28
2023-03-08T16:37:59.356Z,94215.69
2023-03-08T16:40:31.134Z,94216.13
2023-03-08T16:42:58.280Z,94219.59
2023-03-08T16:45:25.167Z,94212.34
2023-03-08T16:47:52.212Z,94231.97
2023-03-08T16:50:19.022Z,94240.41
2023-03-08T16:52:45.920Z,94238.34
2023-03-08T16:55:12.569Z,94241.59
2023-03-08T16:57:40.380Z,94243.50
2023-03-08T17:00:10.401Z,94241.94
2023-03-08T17:02:37.438Z,94242.69
2023-03-08T17:05:04.908Z,94240.47
2023-03-08T17:07:31.516Z,94241.19
2023-03-08T17:09:58.533Z,94239.41
2023-03-08T17:12:25.373Z,94236.66
2023-03-08T17:14:52.502Z,94246.06
2023-03-08T17:17:19.115Z,94250.03
2023-03-08T17:19:46.411Z,94262.66
2023-03-08T17:22:13.184Z,94262.16
2023-03-08T17:24:39.825Z,94265.53
2023-03-08T17:27:06.497Z,94275.63
2023-03-08T17:29:33.104Z,94275.06
2023-03-08T17:31:59.813Z,94296.09
2023-03-08T17:34:26.525Z,94303.69
2023-03-08T17:36:53.602Z,94312.69
2023-03-08T17:39:20.736Z,94300.09
2023-03-08T17:41:47.774Z,94306.91
2023-03-08T17:44:15.014Z,94317.00
2023-03-08T17:46:41.772Z,94318.97
2023-03-08T17:49:08.694Z,94325.59
2023-03-08T17:51:35.342Z,94310.66
2023-03-08T17:54:03.234Z,94301.69
2023-03-08T17:56:32.041Z,94305.41
2023-03-08T17:59:00.761Z,94318.97
2023-03-08T18:01:30.005Z,94326.13
2023-03-08T18:03:57.860Z,94318.97
2023-03-08T18:06:29.012Z,94322.56
2023-03-08T18:08:56.878Z,94321.41
2023-03-08T18:11:24.507Z,94330.88
2023-03-08T18:13:51.502Z,94339.66
2023-03-08T18:16:19.877Z,94330.50
2023-03-08T18:18:49.573Z,94341.28
2023-03-08T18:21:17.955Z,94334.34
2023-03-08T18:23:45.386Z,94342.03
2023-03-08T18:26:13.855Z,94324.09
2023-03-08T18:28:40.842Z,94328.81
2023-03-08T18:31:09.320Z,94335.84
2023-03-08T18:33:36.730Z,94338.34
2023-03-08T18:36:04.398Z,94335.28
2023-03-08T18:38:31.559Z,94328.91
2023-03-08T18:40:58.677Z,94331.16
2023-03-08T18:43:25.427Z,94305.94
2023-03-08T18:45:56.659Z,94337.50
2023-03-08T18:48:24.460Z,94336.84
2023-03-08T18:50:51.891Z,94333.47
2023-03-08T18:53:18.583Z,94331.28
2023-03-08T18:55:56.516Z,94339.66
2023-03-08T18:58:25.158Z,94336.84
2023-03-08T19:00:53.002Z,94341.53
2023-03-08T19:03:20.225Z,94342.56
2023-03-08T19:05:46.972Z,94347.69
2023-03-08T19:08:13.637Z,94349.03
2023-03-08T19:10:40.379Z,94344.13
2023-03-08T19:13:06.980Z,94353.78
2023-03-08T19:15:38.186Z,94355.22
2023-03-08T19:18:06.875Z,94358.69
2023-03-08T19:20:37.976Z,94359.22
2023-03-08T19:23:04.933Z,94354.34
2023-03-08T19:25:33.407Z,94356.97
2023-03-08T19:28:00.138Z,94364.94
2023-03-08T19:30:28.557Z,94362.72
2023-03-08T19:32:56.493Z,94359.72
2023-03-08T19:35:23.411Z,94362.16
2023-03-08T19:37:50.089Z,94337.88
2023-03-08T19:40:16.930Z,94355.31
2023-03-08T19:42:43.674Z,94345.09
2023-03-08T19:45:11.136Z,94359.91
2023-03-08T19:47:37.798Z,94373.91
2023-03-08T19:50:04.723Z,94380.06
2023-03-08T19:52:31.387Z,94386.91
2023-03-08T19:54:58.770Z,94394.91
2023-03-08T19:57:25.586Z,94397.88
2023-03-08T19:59:52.366Z,94400.81
2023-03-08T20:02:19.216Z,94393.84
2023-03-08T20:04:45.878Z,94397.78
2023-03-08T20:07:12.638Z,94400.38
2023-03-08T20:09:41.530Z,94401.16
2023-03-08T20:12:09.068Z,94402.66
2023-03-08T20:14:36.712Z,94411.09
2023-03-08T20:17:05.312Z,94409.31
2023-03-08T20:19:34.117Z,94414.94
2023-03-08T20:22:01.233Z,94431.03
2023-03-08T20:24:27.980Z,94422.31
2023-03-08T20:26:54.584Z,94411.47
2023-03-08T20:29:21.345Z,94417.59
2023-03-08T20:31:48.444Z,94421.47
2023-03-08T20:34:16.072Z,94429.50
2023-03-08T20:36:42.826Z,94420.59
2023-03-08T20:39:09.511Z,94423.78
2023-03-08T20:41:36.126Z,94415.16
2023-03-08T20:44:02.962Z,94422.38
2023-03-08T20:46:33.303Z,94426.59
2023-03-08T20:49:00.779Z,94421.16
2023-03-08T20:51:28.344Z,94420.25
2023-03-08T20:53:56.598Z,94421.47
2023-03-08T20:56:25.438Z,94421.63
2023-03-08T20:58:54.792Z,94415.63
2023-03-08T21:01:26.524Z,94414.56
2023-03-08T21:03:56.026Z,94410.03
2023-03-08T21:06:28.426Z,94412.91
2023-03-08T21:08:55.295Z,94408.22
2023-03-08T21:11:22.644Z,94411.38
2023-03-08T21:13:50.330Z,94410.16
2023-03-08T21:16:19.705Z,94399.09
2023-03-08T21:18:50.954Z,94396.78
2023-03-08T21:21:30.358Z,94397.34
2023-03-08T21:23:58.929Z,94413.38
2023-03-08T21:26:27.284Z,94414.31
2023-03-08T21:28:56.724Z,94410.25
2023-03-08T21:31:23.701Z,94417.09
2023-03-08T21:33:50.850Z,94408.66
2023-03-08T21:36:18.403Z,94392.25
2023-03-08T21:38:45.549Z,94403.22
2023-03-08T21:41:27.683Z,94402.56
2023-03-08T21:43:54.454Z,94392.91
2023-03-08T21:46:22.132Z,94391.97
2023-03-08T21:48:49.506Z,94389.78
2023-03-08T21:51:16.775Z,94393.09
2023-03-08T21:53:44.215Z,94388.41
2023-03-08T21:56:14.086Z,94385.00
2023-03-08T21:58:41.255Z,94405.09
2023-03-08T22:01:26.923Z,94390.81
2023-03-08T22:03:54.610Z,94392.50
2023-03-08T22:06:22.695Z,94386.66
2023-03-08T22:08:50.183Z,94377.25
2023-03-08T22:11:17.998Z,94398.66
2023-03-08T22:13:50.183Z,94394.44
2023-03-08T22:16:16.920Z,94393.50
2023-03-08T22:18:43.771Z,94393.31
2023-03-08T22:21:10.526Z,94396.63
2023-03-08T22:23:37.139Z,94398.41
2023-03-08T22:26:07.164Z,94403.09
2023-03-08T22:28:33.752Z,94394.22
2023-03-08T22:31:00.395Z,94388.91
2023-03-08T22:33:27.132Z,94397.69
2023-03-08T22:35:53.850Z,94384.22
2023-03-08T22:38:21.057Z,94387.56
2023-03-08T22:40:47.791Z,94397.63
2023-03-08T22:43:14.670Z,94392.69
2023-03-08T22:45:41.382Z,94387.94
2023-03-08T22:48:08.597Z,94393.47
2023-03-08T22:50:35.280Z,94381.34
2023-03-08T22:53:01.939Z,94370.47
2023-03-08T22:55:28.649Z,94369.09
2023-03-08T22:57:55.222Z,94376.38
2023-03-08T23:00:21.884Z,94362.75
2023-03-08T23:02:49.142Z,94372.53
2023-03-08T23:05:19.171Z,94370.25
2023-03-08T23:07:46.152Z,94376.72
2023-03-08T23:10:14.377Z,94366.13
2023-03-08T23:12:40.999Z,94382.34
2023-03-08T23:15:08.872Z,94383.84
2023-03-08T23:17:35.579Z,94379.78
2023-03-08T23:20:03.983Z,94379.81
2023-03-08T23:22:30.579Z,94378.63
2023-03-08T23:24:57.250Z,94362.66
2023-03-08T23:27:23.841Z,94383.28
2023-03-08T23:29:53.607Z,94379.22
2023-03-08T23:32:20.662Z,94386.59
2023-03-08T23:34:47.531Z,94371.53
2023-03-08T23:37:14.235Z,94384.47
2023-03-08T23:39:40.783Z,94386.88
2023-03-08T23:42:07.443Z,94378.72
2023-03-08T23:44:34.137Z,94362.19
2023-03-08T23:47:02.371Z,94366.38
2023-03-08T23:49:29.060Z,94371.81
2023-03-08T23:51:55.708Z,94369.56
2023-03-08T23:54:22.344Z,94369.41
2023-03-08T23:56:49.025Z,94373.19
2023-03-08T23:59:21.467Z,94373.31
